Flight Track Log - Related Links

Times and Time Zones

All times are in EDT time to prevent confusion due to time zone crossing. See the WBR2634 flight status page for this flight to view local times or setup timezone preferences in your user account.

Time Position Orientation Groundspeed Altitude Reporting Facility
EDT Latitude Longitude Course Direction KTS MPH feet Rate Location/Type
Thu 05:45:10 PM 40.7656 -91.0664 71° East 137 158 2,200  Level Chicago Center
Thu 05:46:12 PM 40.7775 -91.0211 71° East 133 153 3,000 768 Climbing Chicago Center
Thu 05:47:15 PM 40.7936 -90.9642 69° East 135 155 3,800 720 Climbing Chicago Center
Thu 05:48:17 PM 40.8089 -90.9175 67° East 138 159 4,500 677 Climbing Chicago Center
Thu 05:49:19 PM 40.8222 -90.8703 70° East 137 158 5,200 581 Climbing Chicago Center
Thu 05:50:21 PM 40.8344 -90.8211 72° East 140 161 5,700 581 Climbing Chicago Center
Thu 05:51:23 PM 40.8492 -90.7694 69° East 147 169 6,400 629 Climbing Chicago Center
Thu 05:52:25 PM 40.8619 -90.7161 72° East 152 175 7,000 677 Climbing Chicago Center
Thu 05:53:27 PM 40.8764 -90.6517 73° East 152 175 7,800 629 Climbing Chicago Center
Thu 05:54:29 PM 40.8933 -90.5981 67° East 157 181 8,300 480 Climbing Chicago Center
Thu 05:55:32 PM 40.9106 -90.5408 68° East 163 188 8,800 384 Climbing Chicago Center
Thu 05:56:34 PM 40.9267 -90.4811 70° East 169 194 9,100 97 Climbing Chicago Center
Thu 05:57:36 PM 40.9425 -90.4197 71° East 175 201 9,000 -48 Descending Chicago Center
Thu 05:58:38 PM 40.9614 -90.3583 68° East 178 205 9,000  Level Chicago Center
Thu 05:59:41 PM 40.9817 -90.2853 70° East 175 201 9,000  Level Chicago Center
Thu 06:00:43 PM 40.9983 -90.2256 70° East 173 199 9,000  Level Chicago Center
Thu 06:01:45 PM 41.0175 -90.1656 67° East 176 203 9,000  Level Chicago Center
Thu 06:02:47 PM 41.0322 -90.1058 72° East 172 198 9,000 -48 Level Chicago Center
Thu 06:03:49 PM 41.0481 -90.0453 71° East 173 199 8,900 -48 Descending Chicago Center
Thu 06:04:51 PM 41.0647 -89.9853 70° East 173 199 8,900 48 Level Chicago Center
Thu 06:05:53 PM 41.0806 -89.9258 71° East 171 197 9,000 96 Climbing Chicago Center
Thu 06:06:56 PM 41.1039 -89.8558 66° East 172 198 9,100  Climbing Chicago Center
Thu 06:07:58 PM 41.1294 -89.7997 59° Northeast 175 201 9,000 -48 Descending Chicago Center
Thu 06:09:00 PM 41.1528 -89.7428 61° Northeast 176 203 9,000  Level Chicago Center
Thu 06:10:02 PM 41.1769 -89.6872 60° Northeast 175 201 9,000 48 Level Chicago Center
Thu 06:11:04 PM 41.1983 -89.6289 64° Northeast 175 201 9,100  Climbing Chicago Center
Thu 06:12:06 PM 41.2225 -89.5736 60° Northeast 174 200 9,000 -48 Descending Chicago Center
Thu 06:13:08 PM 41.2539 -89.5092 57° Northeast 174 200 9,000  Level Chicago Center
Thu 06:14:10 PM 41.2889 -89.4644 44° Northeast 174 200 9,000  Level Chicago Center
Thu 06:15:13 PM 41.3236 -89.4189 45° Northeast 175 201 9,000  Level Chicago Center
Thu 06:16:15 PM 41.3578 -89.3736 45° Northeast 174 200 9,000  Level Chicago Center
Thu 06:17:17 PM 41.3892 -89.3253 49° Northeast 172 198 9,000  Level Chicago Center
Thu 06:18:19 PM 41.4078 -89.2667 67° East 171 197 9,000 48 Level Chicago Center
Thu 06:19:21 PM 41.4294 -89.1975 67° East 169 194 9,100  Climbing Chicago Center
Thu 06:20:23 PM 41.4478 -89.1369 68° East 174 200 9,000 -48 Descending Chicago Center
Thu 06:21:25 PM 41.4683 -89.0775 65° Northeast 177 204 9,000 48 Level Chicago Center
Thu 06:22:27 PM 41.4864 -89.0175 68° East 175 201 9,100  Climbing Chicago Center
Thu 06:23:30 PM 41.5050 -88.9569 68° East 177 204 9,000 -192 Descending Chicago Center
Thu 06:24:32 PM 41.5244 -88.8978 66° East 176 203 8,700 -484 Descending Chicago Center
Thu 06:25:34 PM 41.5461 -88.8264 68° East 175 201 8,000 -339 Descending Chicago Center
Thu 06:26:36 PM 41.5683 -88.7669 63° Northeast 177 204 8,000  Level Chicago Center
Thu 06:27:38 PM 41.5892 -88.7081 65° Northeast 177 204 8,000  Level Chicago Center
Thu 06:28:40 PM 41.6097 -88.6503 65° Northeast 174 200 8,000  Level Chicago Center
Thu 06:29:42 PM 41.6303 -88.5906 65° Northeast 177 204 8,000 48 Level Chicago Center
Thu 06:30:44 PM 41.6600 -88.5242 59° Northeast 174 200 8,100 -96 Climbing Chicago Center
Thu 06:31:47 PM 41.6828 -88.4661 62° Northeast 175 201 7,800 -336 Descending Chicago Center
Thu 06:32:49 PM 41.7069 -88.4069 61° Northeast 181 208 7,400 -387 Descending Chicago Center
Thu 06:33:51 PM 41.7536 -88.3803 23° Northeast 181 208 7,000 -145 Descending Chicago Center
Thu 06:34:53 PM 41.8014 -88.3614 16° North 179 206 7,100 -290 Climbing Chicago Center
Thu 06:35:55 PM 41.8603 -88.3417 14° North 182 209 6,400 -726 Descending Chicago Center
Thu 06:36:57 PM 41.9125 -88.3408 North 187 215 5,600 -629 Descending Chicago Center
Thu 06:37:59 PM 41.9619 -88.3311 North 187 215 5,100 -532 Descending Chicago Center
Thu 06:39:01 PM 41.9678 -88.2539 84° East 192 221 4,500 -432 Descending Chicago Center
Thu 06:40:04 PM 41.9667 -88.1844 91° East 187 215 4,200 -480 Descending Chicago Center
Thu 06:41:06 PM 41.9689 -88.1144 88° East 186 214 3,500 -1,008 Descending Chicago Center
Thu 06:42:03 PM 41.9667 -88.0333 92° East 172 198 2,200 -1,077 Descending Chicago TRACON
Thu 06:43:03 PM 41.9667 -87.9833 90° East 138 159 1,400 -700 Descending Chicago TRACON
Thu 06:44:03 PM 41.9667 -87.9333 90° East 115 132 800 -600 Descending Chicago TRACON

Login

Don't have an account? Register now (free) for customized features, flight alerts, and more!